01:14 Rennrad Innsbruck ARZ - Radweg - Voels - Hatting - Pettnau - Telfs - Moetz
Ort Innsbruck Datum 11.08.2015 17:31:16
Kategorie Rennrad
Distanz 40,25 Kilometer Steigung 189,0 Meter Gefälle -131,0 Meter
Gesamt Zeit 01:16:04 Aktiv 01:14:18 Pause 00:01:46
Durchs. Tempo 32,5 km/h Tempo max. 46,9 km/h Tempo min. 20,6 km/h
Kalorien 0 Durchs. HF 130 BPM HF max. 159 BPM
Wetter 29 °C Clear Min/Max: 27,8 °C/30,5 °C; Druck: 1015,9 mbar; Rel. Feuchte: 43,1%; Taupunkt: 15,4 °C; Windgeschwindigkeit: 14,5 km/h; Niederschlag: 0,0mm
Ausrüstung Bontrager - RXL Road
Continental - Grand Prix 4000 S II 25-622
Poison - Rennrad
Shimano - HG CN-7901 Dura Ace
Notiz Innsbruck ARZ - Radweg - Voels - Hatting - Pettnau - Telfs - Moetz ... warm, trocken, bis Pettnau Rücken-, dann bis Telfs Gegenwind, Rest wieder Rückenwind, eher flott ... garmin connect
Splits
Distanz (km) Gesamt Zeit Split Zeit Split Tempo Split Tempo Höhenprofil (m)
1,00 00:02:00 00:02:00 00:02:00 29,9 -3,58
2,00 00:04:02 00:02:02 00:02:03 29,4 -3,93
3,00 00:06:02 00:01:59 00:01:59 30,2 2,21
4,00 00:07:53 00:01:51 00:01:51 32,4 1,81
5,00 00:09:41 00:01:48 00:01:49 33,2 3,60
6,00 00:11:49 00:02:08 00:02:08 28,1 10,48
7,00 00:13:36 00:01:46 00:01:47 33,6 -4,97
8,00 00:15:25 00:01:48 00:01:49 33,1 1,32
9,00 00:17:07 00:01:41 00:01:42 35,4 3,24
10,00 00:19:15 00:02:07 00:02:08 28,1 15,14
11,00 00:21:26 00:02:11 00:02:11 27,5 11,79
12,00 00:22:56 00:01:30 00:01:30 39,8 -16,62
13,00 00:24:29 00:01:32 00:01:33 38,8 -6,72
14,00 00:26:25 00:01:55 00:01:56 31,0 5,43
15,00 00:28:18 00:01:52 00:01:53 31,9 0,55
16,00 00:30:12 00:01:54 00:01:55 31,4 0,49
17,00 00:32:10 00:01:57 00:01:58 30,5 5,59
18,00 00:34:23 00:02:13 00:02:13 27,0 12,89
19,00 00:36:23 00:01:59 00:01:59 30,2 -5,97
20,00 00:38:01 00:01:38 00:01:39 36,5 -6,01
21,00 00:40:01 00:01:59 00:02:00 30,0 1,75
22,00 00:41:47 00:01:46 00:01:46 33,9 1,51
23,00 00:43:35 00:01:47 00:01:47 33,6 0,00
24,00 00:45:32 00:01:57 00:01:57 30,7 8,38
25,00 00:47:33 00:02:00 00:02:01 29,8 -2,96
26,00 00:49:37 00:02:04 00:02:05 28,9 2,13
27,00 00:51:32 00:01:54 00:01:54 31,5 2,01
28,00 00:53:19 00:01:46 00:01:47 33,6 -0,86
29,00 00:55:04 00:01:45 00:01:46 34,1 6,10
30,00 00:57:09 00:02:04 00:02:05 28,8 -2,22
31,00 00:58:53 00:01:43 00:01:44 34,7 1,26
32,00 01:00:31 00:01:38 00:01:39 36,5 2,58
33,00 01:02:12 00:01:40 00:01:40 35,8 6,76
34,00 01:03:52 00:01:40 00:01:40 35,8 1,97
35,00 01:05:31 00:01:38 00:01:39 36,4 2,22
36,00 01:07:12 00:01:41 00:01:41 35,6 -2,26
37,00 01:08:46 00:01:34 00:01:34 38,3 2,93
38,00 01:10:15 00:01:28 00:01:29 40,5 1,96
39,00 01:11:46 00:01:30 00:01:31 39,7 0,18
40,00 01:13:42 00:01:55 00:01:56 31,1 7,32
40,25 01:14:18 00:00:35 00:02:22 25,4 2,27